sensor_id;sensor_type;location;lat;lon;timestamp;pressure;altitude;pressure_sealevel;temperature;humidity
70968;BME280;58629;48.808;8.820;2023-07-13T00:01:27;97133.63;;;17.16;66.21
70968;BME280;58629;48.808;8.820;2023-07-13T00:03:53;97137.22;;;17.13;66.00
70968;BME280;58629;48.808;8.820;2023-07-13T00:06:18;97140.19;;;17.15;65.74
70968;BME280;58629;48.808;8.820;2023-07-13T00:08:45;97138.88;;;17.01;67.29
70968;BME280;58629;48.808;8.820;2023-07-13T00:11:11;97134.28;;;16.93;67.37
70968;BME280;58629;48.808;8.820;2023-07-13T00:13:36;97128.19;;;16.83;67.74
70968;BME280;58629;48.808;8.820;2023-07-13T00:16:04;97132.94;;;16.88;67.08
70968;BME280;58629;48.808;8.820;2023-07-13T00:18:29;97131.47;;;16.87;66.55
70968;BME280;58629;48.808;8.820;2023-07-13T00:20:56;97125.53;;;16.83;66.50
70968;BME280;58629;48.808;8.820;2023-07-13T00:23:22;97131.88;;;16.86;66.56
70968;BME280;58629;48.808;8.820;2023-07-13T00:25:48;97123.84;;;16.86;66.61
70968;BME280;58629;48.808;8.820;2023-07-13T00:28:15;97127.13;;;16.90;66.29
70968;BME280;58629;48.808;8.820;2023-07-13T00:30:41;97120.31;;;16.89;65.83
70968;BME280;58629;48.808;8.820;2023-07-13T00:33:06;97122.97;;;16.89;66.35
70968;BME280;58629;48.808;8.820;2023-07-13T00:35:34;97111.69;;;16.85;66.43
70968;BME280;58629;48.808;8.820;2023-07-13T00:37:59;97113.03;;;16.89;65.85
70968;BME280;58629;48.808;8.820;2023-07-13T00:40:25;97105.72;;;16.90;65.99
70968;BME280;58629;48.808;8.820;2023-07-13T00:42:52;97105.88;;;16.86;65.59
70968;BME280;58629;48.808;8.820;2023-07-13T00:47:43;97098.31;;;16.85;65.63
70968;BME280;58629;48.808;8.820;2023-07-13T00:50:12;97096.97;;;16.89;64.96
70968;BME280;58629;48.808;8.820;2023-07-13T00:52:41;97095.47;;;16.88;64.45
70968;BME280;58629;48.808;8.820;2023-07-13T00:55:09;97096.66;;;16.96;64.25
70968;BME280;58629;48.808;8.820;2023-07-13T00:57:36;97098.75;;;16.92;64.72
70968;BME280;58629;48.808;8.820;2023-07-13T01:00:04;97106.50;;;16.81;64.73
70968;BME280;58629;48.808;8.820;2023-07-13T01:02:33;97097.13;;;16.86;64.15
70968;BME280;58629;48.808;8.820;2023-07-13T01:04:58;97104.56;;;16.91;63.68
70968;BME280;58629;48.808;8.820;2023-07-13T01:07:24;97105.00;;;16.89;63.04
70968;BME280;58629;48.808;8.820;2023-07-13T01:09:50;97113.16;;;16.86;63.89
70968;BME280;58629;48.808;8.820;2023-07-13T01:12:15;97107.22;;;16.91;63.54
70968;BME280;58629;48.808;8.820;2023-07-13T01:14:41;97105.91;;;16.77;63.83
70968;BME280;58629;48.808;8.820;2023-07-13T01:17:09;97113.78;;;16.72;64.38
70968;BME280;58629;48.808;8.820;2023-07-13T01:19:38;97114.81;;;16.65;64.82
70968;BME280;58629;48.808;8.820;2023-07-13T01:22:12;97118.09;;;16.69;63.67
70968;BME280;58629;48.808;8.820;2023-07-13T01:24:42;97117.50;;;16.65;64.33
70968;BME280;58629;48.808;8.820;2023-07-13T01:27:08;97117.19;;;16.54;65.14
70968;BME280;58629;48.808;8.820;2023-07-13T01:29:37;97115.25;;;16.55;64.39
70968;BME280;58629;48.808;8.820;2023-07-13T01:32:13;97120.28;;;16.43;65.74
70968;BME280;58629;48.808;8.820;2023-07-13T01:34:39;97124.28;;;16.39;65.45
70968;BME280;58629;48.808;8.820;2023-07-13T01:37:11;97127.69;;;16.30;66.48
70968;BME280;58629;48.808;8.820;2023-07-13T01:39:36;97113.59;;;16.30;65.64
70968;BME280;58629;48.808;8.820;2023-07-13T01:42:02;97119.97;;;16.32;65.69
70968;BME280;58629;48.808;8.820;2023-07-13T01:44:28;97119.53;;;16.34;66.19
70968;BME280;58629;48.808;8.820;2023-07-13T01:46:53;97119.66;;;16.30;67.49
70968;BME280;58629;48.808;8.820;2023-07-13T01:49:18;97115.06;;;16.31;65.59
70968;BME280;58629;48.808;8.820;2023-07-13T01:51:44;97113.41;;;16.24;65.54
70968;BME280;58629;48.808;8.820;2023-07-13T01:54:09;97112.25;;;16.25;66.08
70968;BME280;58629;48.808;8.820;2023-07-13T01:56:34;97116.22;;;16.21;66.45
70968;BME280;58629;48.808;8.820;2023-07-13T01:59:00;97108.94;;;16.12;68.47
70968;BME280;58629;48.808;8.820;2023-07-13T02:01:25;97119.78;;;16.09;68.73
70968;BME280;58629;48.808;8.820;2023-07-13T02:03:50;97116.19;;;16.03;71.72
70968;BME280;58629;48.808;8.820;2023-07-13T02:06:16;97118.56;;;16.01;73.51
70968;BME280;58629;48.808;8.820;2023-07-13T02:08:42;97121.66;;;15.90;74.39
70968;BME280;58629;48.808;8.820;2023-07-13T02:11:08;97123.44;;;15.84;69.68
70968;BME280;58629;48.808;8.820;2023-07-13T02:13:33;97122.50;;;15.78;71.47
70968;BME280;58629;48.808;8.820;2023-07-13T02:15:58;97122.06;;;15.80;73.88
70968;BME280;58629;48.808;8.820;2023-07-13T02:18:24;97116.88;;;15.76;74.74
70968;BME280;58629;48.808;8.820;2023-07-13T02:20:49;97118.31;;;15.68;77.43
70968;BME280;58629;48.808;8.820;2023-07-13T02:23:15;97122.44;;;15.60;79.26
70968;BME280;58629;48.808;8.820;2023-07-13T02:25:40;97123.44;;;15.53;80.05
70968;BME280;58629;48.808;8.820;2023-07-13T02:28:06;97127.09;;;15.47;80.91
70968;BME280;58629;48.808;8.820;2023-07-13T02:30:31;97135.06;;;15.38;81.10
70968;BME280;58629;48.808;8.820;2023-07-13T02:32:57;97131.22;;;15.39;81.22
70968;BME280;58629;48.808;8.820;2023-07-13T02:35:23;97126.59;;;15.39;82.34
70968;BME280;58629;48.808;8.820;2023-07-13T02:37:48;97126.13;;;15.32;82.96
70968;BME280;58629;48.808;8.820;2023-07-13T02:40:14;97129.53;;;15.32;81.96
70968;BME280;58629;48.808;8.820;2023-07-13T02:42:40;97135.44;;;15.27;82.40
70968;BME280;58629;48.808;8.820;2023-07-13T02:45:06;97138.69;;;15.22;83.41
70968;BME280;58629;48.808;8.820;2023-07-13T02:47:33;97142.81;;;15.23;83.05
70968;BME280;58629;48.808;8.820;2023-07-13T02:49:58;97153.63;;;15.20;82.63
70968;BME280;58629;48.808;8.820;2023-07-13T02:52:24;97153.13;;;15.12;83.61
70968;BME280;58629;48.808;8.820;2023-07-13T02:54:49;97153.25;;;15.09;85.29
70968;BME280;58629;48.808;8.820;2023-07-13T02:57:15;97144.47;;;14.99;85.91
70968;BME280;58629;48.808;8.820;2023-07-13T02:59:40;97147.34;;;14.92;86.31
70968;BME280;58629;48.808;8.820;2023-07-13T03:02:05;97142.16;;;14.89;86.73
70968;BME280;58629;48.808;8.820;2023-07-13T03:04:30;97144.31;;;14.81;84.85
70968;BME280;58629;48.808;8.820;2023-07-13T03:06:56;97143.81;;;14.73;85.45
70968;BME280;58629;48.808;8.820;2023-07-13T03:09:23;97153.00;;;14.72;86.23
70968;BME280;58629;48.808;8.820;2023-07-13T03:11:49;97153.56;;;14.67;87.07
70968;BME280;58629;48.808;8.820;2023-07-13T03:14:14;97148.13;;;14.58;86.12
70968;BME280;58629;48.808;8.820;2023-07-13T03:16:39;97151.22;;;14.57;86.04
70968;BME280;58629;48.808;8.820;2023-07-13T03:19:05;97148.56;;;14.57;87.79
70968;BME280;58629;48.808;8.820;2023-07-13T03:21:31;97152.41;;;14.56;88.67
70968;BME280;58629;48.808;8.820;2023-07-13T03:23:56;97156.56;;;14.57;88.46
70968;BME280;58629;48.808;8.820;2023-07-13T03:26:22;97154.03;;;14.53;89.04
70968;BME280;58629;48.808;8.820;2023-07-13T03:28:48;97151.16;;;14.48;88.66
70968;BME280;58629;48.808;8.820;2023-07-13T03:31:16;97161.81;;;14.48;89.23
70968;BME280;58629;48.808;8.820;2023-07-13T03:33:43;97164.56;;;14.44;89.08
70968;BME280;58629;48.808;8.820;2023-07-13T03:36:22;97174.19;;;14.42;90.16
70968;BME280;58629;48.808;8.820;2023-07-13T03:38:49;97179.31;;;14.36;89.94
70968;BME280;58629;48.808;8.820;2023-07-13T03:41:15;97178.13;;;14.37;89.22
70968;BME280;58629;48.808;8.820;2023-07-13T03:43:41;97184.44;;;14.31;90.17
70968;BME280;58629;48.808;8.820;2023-07-13T03:46:07;97187.53;;;14.29;90.03
70968;BME280;58629;48.808;8.820;2023-07-13T03:48:32;97184.94;;;14.26;89.48
70968;BME280;58629;48.808;8.820;2023-07-13T03:50:57;97187.63;;;14.26;89.94
70968;BME280;58629;48.808;8.820;2023-07-13T03:53:23;97189.84;;;14.27;90.87
70968;BME280;58629;48.808;8.820;2023-07-13T03:55:48;97198.63;;;14.28;90.37
70968;BME280;58629;48.808;8.820;2023-07-13T03:58:34;97197.84;;;14.27;91.15
70968;BME280;58629;48.808;8.820;2023-07-13T04:01:00;97206.19;;;14.29;90.87
70968;BME280;58629;48.808;8.820;2023-07-13T04:03:27;97208.28;;;14.22;91.95
70968;BME280;58629;48.808;8.820;2023-07-13T04:05:53;97208.81;;;14.17;92.59
70968;BME280;58629;48.808;8.820;2023-07-13T04:08:19;97208.28;;;14.09;91.92
70968;BME280;58629;48.808;8.820;2023-07-13T04:10:44;97209.47;;;13.96;90.32
70968;BME280;58629;48.808;8.820;2023-07-13T04:13:10;97212.13;;;13.96;92.32
70968;BME280;58629;48.808;8.820;2023-07-13T04:15:35;97209.22;;;14.03;92.93
70968;BME280;58629;48.808;8.820;2023-07-13T04:18:00;97215.44;;;14.12;93.97
70968;BME280;58629;48.808;8.820;2023-07-13T04:20:26;97216.19;;;14.38;96.51
70968;BME280;58629;48.808;8.820;2023-07-13T04:22:52;97214.22;;;14.63;95.99
70968;BME280;58629;48.808;8.820;2023-07-13T04:25:19;97222.81;;;14.80;93.73
70968;BME280;58629;48.808;8.820;2023-07-13T04:27:44;97215.44;;;14.84;92.60
70968;BME280;58629;48.808;8.820;2023-07-13T04:30:09;97214.09;;;15.01;91.73
70968;BME280;58629;48.808;8.820;2023-07-13T04:32:35;97214.34;;;15.16;89.82
70968;BME280;58629;48.808;8.820;2023-07-13T04:35:00;97214.63;;;15.30;90.70
70968;BME280;58629;48.808;8.820;2023-07-13T04:37:26;97213.19;;;15.38;88.80
70968;BME280;58629;48.808;8.820;2023-07-13T04:39:52;97209.28;;;15.52;88.47
70968;BME280;58629;48.808;8.820;2023-07-13T04:42:17;97211.91;;;15.65;87.56
70968;BME280;58629;48.808;8.820;2023-07-13T04:44:50;97216.53;;;15.73;86.55
70968;BME280;58629;48.808;8.820;2023-07-13T04:47:17;97212.06;;;15.70;86.08
70968;BME280;58629;48.808;8.820;2023-07-13T04:49:42;97215.53;;;15.80;85.83
70968;BME280;58629;48.808;8.820;2023-07-13T04:52:08;97215.28;;;15.65;84.86
70968;BME280;58629;48.808;8.820;2023-07-13T04:54:34;97211.94;;;15.74;84.88
70968;BME280;58629;48.808;8.820;2023-07-13T04:57:01;97222.53;;;15.86;84.24
70968;BME280;58629;48.808;8.820;2023-07-13T04:59:26;97213.50;;;15.93;84.86
70968;BME280;58629;48.808;8.820;2023-07-13T05:01:52;97220.78;;;15.92;84.60
70968;BME280;58629;48.808;8.820;2023-07-13T05:04:18;97229.00;;;16.07;84.52
70968;BME280;58629;48.808;8.820;2023-07-13T05:06:43;97232.31;;;15.89;83.91
70968;BME280;58629;48.808;8.820;2023-07-13T05:09:09;97233.91;;;15.78;84.31
70968;BME280;58629;48.808;8.820;2023-07-13T05:11:34;97236.66;;;15.65;84.79
70968;BME280;58629;48.808;8.820;2023-07-13T05:13:59;97240.94;;;15.63;83.30
70968;BME280;58629;48.808;8.820;2023-07-13T05:16:26;97242.50;;;15.51;83.20
70968;BME280;58629;48.808;8.820;2023-07-13T05:18:52;97251.38;;;15.48;83.17
70968;BME280;58629;48.808;8.820;2023-07-13T05:21:17;97246.47;;;15.46;83.18
70968;BME280;58629;48.808;8.820;2023-07-13T05:23:43;97239.13;;;15.38;83.26
70968;BME280;58629;48.808;8.820;2023-07-13T05:26:08;97233.34;;;15.39;83.50
70968;BME280;58629;48.808;8.820;2023-07-13T05:28:33;97240.63;;;15.39;83.23
70968;BME280;58629;48.808;8.820;2023-07-13T05:30:58;97242.09;;;15.40;83.96
70968;BME280;58629;48.808;8.820;2023-07-13T05:33:24;97236.00;;;15.39;84.06
70968;BME280;58629;48.808;8.820;2023-07-13T05:35:50;97242.31;;;15.45;83.50
70968;BME280;58629;48.808;8.820;2023-07-13T05:38:16;97235.84;;;15.55;82.63
70968;BME280;58629;48.808;8.820;2023-07-13T05:40:45;97241.13;;;15.68;82.39
70968;BME280;58629;48.808;8.820;2023-07-13T05:43:11;97235.69;;;15.81;82.72
70968;BME280;58629;48.808;8.820;2023-07-13T05:45:37;97237.22;;;15.91;81.92
70968;BME280;58629;48.808;8.820;2023-07-13T05:48:02;97245.44;;;15.96;80.32
70968;BME280;58629;48.808;8.820;2023-07-13T05:50:28;97247.81;;;16.03;79.69
70968;BME280;58629;48.808;8.820;2023-07-13T05:52:53;97249.50;;;16.10;79.35
70968;BME280;58629;48.808;8.820;2023-07-13T05:55:19;97255.75;;;16.16;78.90
70968;BME280;58629;48.808;8.820;2023-07-13T05:57:45;97259.47;;;16.18;78.59
70968;BME280;58629;48.808;8.820;2023-07-13T06:00:11;97256.97;;;16.24;78.07
70968;BME280;58629;48.808;8.820;2023-07-13T06:02:36;97261.88;;;16.25;77.65
70968;BME280;58629;48.808;8.820;2023-07-13T06:05:02;97259.66;;;16.24;77.73
70968;BME280;58629;48.808;8.820;2023-07-13T06:07:27;97256.69;;;16.31;77.71
70968;BME280;58629;48.808;8.820;2023-07-13T06:09:52;97261.47;;;16.36;77.98
70968;BME280;58629;48.808;8.820;2023-07-13T06:12:18;97266.69;;;16.39;76.93
70968;BME280;58629;48.808;8.820;2023-07-13T06:14:43;97261.06;;;16.46;77.23
70968;BME280;58629;48.808;8.820;2023-07-13T06:17:08;97267.50;;;16.58;77.61
70968;BME280;58629;48.808;8.820;2023-07-13T06:19:34;97263.09;;;16.73;77.35
70968;BME280;58629;48.808;8.820;2023-07-13T06:21:59;97272.31;;;16.90;76.86
70968;BME280;58629;48.808;8.820;2023-07-13T06:24:25;97265.94;;;17.06;75.30
70968;BME280;58629;48.808;8.820;2023-07-13T06:26:50;97281.56;;;17.25;75.14
70968;BME280;58629;48.808;8.820;2023-07-13T06:29:16;97282.03;;;17.33;73.83
70968;BME280;58629;48.808;8.820;2023-07-13T06:31:41;97282.63;;;17.37;74.64
70968;BME280;58629;48.808;8.820;2023-07-13T06:34:06;97282.31;;;17.44;74.05
70968;BME280;58629;48.808;8.820;2023-07-13T06:36:32;97285.00;;;17.53;72.00
70968;BME280;58629;48.808;8.820;2023-07-13T06:38:57;97288.44;;;17.54;72.74
70968;BME280;58629;48.808;8.820;2023-07-13T06:41:22;97282.63;;;17.55;71.47
70968;BME280;58629;48.808;8.820;2023-07-13T06:43:50;97291.84;;;17.54;68.97
70968;BME280;58629;48.808;8.820;2023-07-13T06:46:15;97296.31;;;17.57;65.34
70968;BME280;58629;48.808;8.820;2023-07-13T06:48:40;97292.13;;;17.74;66.71
70968;BME280;58629;48.808;8.820;2023-07-13T06:51:05;97291.34;;;17.83;64.99
70968;BME280;58629;48.808;8.820;2023-07-13T06:53:31;97295.97;;;18.00;67.25
70968;BME280;58629;48.808;8.820;2023-07-13T06:55:56;97291.44;;;18.15;65.36
70968;BME280;58629;48.808;8.820;2023-07-13T06:58:22;97293.75;;;18.32;65.00
70968;BME280;58629;48.808;8.820;2023-07-13T07:00:50;97288.66;;;18.43;61.79
70968;BME280;58629;48.808;8.820;2023-07-13T07:03:16;97293.25;;;18.51;60.31
70968;BME280;58629;48.808;8.820;2023-07-13T07:05:41;97291.72;;;18.59;59.19
70968;BME280;58629;48.808;8.820;2023-07-13T07:08:07;97305.78;;;18.78;61.28
70968;BME280;58629;48.808;8.820;2023-07-13T07:10:33;97302.03;;;18.84;58.93
70968;BME280;58629;48.808;8.820;2023-07-13T07:12:59;97296.72;;;18.99;60.02
70968;BME280;58629;48.808;8.820;2023-07-13T07:15:25;97294.91;;;19.05;61.90
70968;BME280;58629;48.808;8.820;2023-07-13T07:17:50;97300.88;;;19.24;61.82
70968;BME280;58629;48.808;8.820;2023-07-13T07:20:16;97299.44;;;19.37;60.26
70968;BME280;58629;48.808;8.820;2023-07-13T07:22:41;97308.28;;;19.52;60.88
70968;BME280;58629;48.808;8.820;2023-07-13T07:25:07;97298.38;;;19.58;59.29
70968;BME280;58629;48.808;8.820;2023-07-13T07:27:32;97304.31;;;19.62;58.52
70968;BME280;58629;48.808;8.820;2023-07-13T07:29:58;97299.59;;;19.72;58.26
70968;BME280;58629;48.808;8.820;2023-07-13T07:32:24;97303.78;;;19.87;57.05
70968;BME280;58629;48.808;8.820;2023-07-13T07:34:49;97297.38;;;20.00;55.81
70968;BME280;58629;48.808;8.820;2023-07-13T07:37:15;97289.88;;;20.04;52.77
70968;BME280;58629;48.808;8.820;2023-07-13T07:39:40;97296.72;;;20.05;52.29
70968;BME280;58629;48.808;8.820;2023-07-13T07:42:06;97293.75;;;20.17;50.27
70968;BME280;58629;48.808;8.820;2023-07-13T07:44:32;97291.25;;;20.14;49.67
70968;BME280;58629;48.808;8.820;2023-07-13T07:46:58;97296.38;;;20.26;51.95
70968;BME280;58629;48.808;8.820;2023-07-13T07:49:23;97294.69;;;20.43;51.18
70968;BME280;58629;48.808;8.820;2023-07-13T07:51:49;97294.00;;;20.48;50.80
70968;BME280;58629;48.808;8.820;2023-07-13T07:54:15;97297.44;;;20.49;48.54
70968;BME280;58629;48.808;8.820;2023-07-13T07:56:40;97292.53;;;20.47;48.23
70968;BME280;58629;48.808;8.820;2023-07-13T07:59:06;97290.63;;;20.68;49.11
70968;BME280;58629;48.808;8.820;2023-07-13T08:01:31;97295.63;;;20.75;47.90
70968;BME280;58629;48.808;8.820;2023-07-13T08:03:56;97291.72;;;20.96;48.94
70968;BME280;58629;48.808;8.820;2023-07-13T08:06:22;97302.19;;;21.09;46.04
70968;BME280;58629;48.808;8.820;2023-07-13T08:08:48;97299.59;;;21.00;44.60
70968;BME280;58629;48.808;8.820;2023-07-13T08:11:13;97294.81;;;20.89;43.45
70968;BME280;58629;48.808;8.820;2023-07-13T08:13:39;97303.66;;;21.10;44.99
70968;BME280;58629;48.808;8.820;2023-07-13T08:16:05;97299.91;;;21.22;44.92
70968;BME280;58629;48.808;8.820;2023-07-13T08:18:30;97298.56;;;21.12;43.16
70968;BME280;58629;48.808;8.820;2023-07-13T08:20:56;97298.91;;;20.85;44.16
70968;BME280;58629;48.808;8.820;2023-07-13T08:23:22;97306.31;;;20.69;44.86
70968;BME280;58629;48.808;8.820;2023-07-13T08:25:52;97306.44;;;20.81;45.70
70968;BME280;58629;48.808;8.820;2023-07-13T08:28:18;97296.28;;;20.90;43.66
70968;BME280;58629;48.808;8.820;2023-07-13T08:30:43;97305.81;;;20.86;44.78
70968;BME280;58629;48.808;8.820;2023-07-13T08:33:08;97295.25;;;21.22;44.29
70968;BME280;58629;48.808;8.820;2023-07-13T08:35:34;97302.38;;;21.45;44.03
70968;BME280;58629;48.808;8.820;2023-07-13T08:37:59;97293.69;;;21.36;42.91
70968;BME280;58629;48.808;8.820;2023-07-13T08:40:27;97293.84;;;21.27;43.18
70968;BME280;58629;48.808;8.820;2023-07-13T08:42:55;97296.09;;;21.54;41.72
70968;BME280;58629;48.808;8.820;2023-07-13T08:45:23;97295.09;;;21.77;43.87
70968;BME280;58629;48.808;8.820;2023-07-13T08:47:59;97291.78;;;21.62;42.22
70968;BME280;58629;48.808;8.820;2023-07-13T08:50:35;97291.69;;;22.02;43.43
70968;BME280;58629;48.808;8.820;2023-07-13T08:53:07;97293.38;;;22.00;42.14
70968;BME280;58629;48.808;8.820;2023-07-13T08:55:34;97295.47;;;21.85;41.87
70968;BME280;58629;48.808;8.820;2023-07-13T08:58:13;97299.09;;;22.13;42.34
70968;BME280;58629;48.808;8.820;2023-07-13T09:00:48;97296.41;;;22.13;42.01
70968;BME280;58629;48.808;8.820;2023-07-13T09:03:23;97291.34;;;22.20;42.94
70968;BME280;58629;48.808;8.820;2023-07-13T09:05:53;97299.19;;;22.18;41.26
70968;BME280;58629;48.808;8.820;2023-07-13T09:14:04;97307.78;;;21.97;42.82
70968;BME280;58629;48.808;8.820;2023-07-13T09:16:32;97305.97;;;22.08;42.18
70968;BME280;58629;48.808;8.820;2023-07-13T09:19:03;97300.75;;;22.05;42.49
70968;BME280;58629;48.808;8.820;2023-07-13T09:21:32;97301.66;;;22.22;42.98
70968;BME280;58629;48.808;8.820;2023-07-13T09:27:08;97299.53;;;22.37;42.64
70968;BME280;58629;48.808;8.820;2023-07-13T09:29:41;97304.72;;;22.72;42.60
70968;BME280;58629;48.808;8.820;2023-07-13T09:32:12;97306.97;;;22.84;42.50
70968;BME280;58629;48.808;8.820;2023-07-13T09:34:40;97307.69;;;22.74;42.37
70968;BME280;58629;48.808;8.820;2023-07-13T09:37:05;97299.13;;;22.86;41.61
70968;BME280;58629;48.808;8.820;2023-07-13T09:39:37;97295.47;;;22.89;40.77
70968;BME280;58629;48.808;8.820;2023-07-13T09:42:12;97306.75;;;22.88;42.63
70968;BME280;58629;48.808;8.820;2023-07-13T09:47:19;97295.78;;;23.02;41.90
70968;BME280;58629;48.808;8.820;2023-07-13T09:49:45;97293.59;;;23.06;41.48
70968;BME280;58629;48.808;8.820;2023-07-13T09:52:12;97291.38;;;22.57;41.93
70968;BME280;58629;48.808;8.820;2023-07-13T09:54:39;97293.84;;;22.61;42.33
70968;BME280;58629;48.808;8.820;2023-07-13T09:57:14;97293.47;;;22.79;43.31
70968;BME280;58629;48.808;8.820;2023-07-13T09:59:41;97285.56;;;23.28;42.66
70968;BME280;58629;48.808;8.820;2023-07-13T10:02:37;97299.25;;;23.14;42.21
70968;BME280;58629;48.808;8.820;2023-07-13T10:05:05;97298.78;;;23.15;42.62
70968;BME280;58629;48.808;8.820;2023-07-13T10:07:35;97295.63;;;23.28;38.11
70968;BME280;58629;48.808;8.820;2023-07-13T10:10:03;97288.34;;;23.45;38.44
70968;BME280;58629;48.808;8.820;2023-07-13T10:12:30;97291.34;;;23.69;38.08
70968;BME280;58629;48.808;8.820;2023-07-13T10:15:01;97283.75;;;23.84;38.02
70968;BME280;58629;48.808;8.820;2023-07-13T10:17:30;97281.88;;;23.26;39.68
70968;BME280;58629;48.808;8.820;2023-07-13T10:20:04;97291.53;;;22.85;40.33
70968;BME280;58629;48.808;8.820;2023-07-13T10:22:37;97300.78;;;23.20;41.72
70968;BME280;58629;48.808;8.820;2023-07-13T10:25:16;97294.06;;;22.57;40.69
70968;BME280;58629;48.808;8.820;2023-07-13T10:27:43;97294.81;;;22.58;41.09
70968;BME280;58629;48.808;8.820;2023-07-13T10:30:14;97284.03;;;22.58;41.17
70968;BME280;58629;48.808;8.820;2023-07-13T10:32:42;97296.25;;;22.95;41.08
70968;BME280;58629;48.808;8.820;2023-07-13T10:35:13;97299.72;;;22.59;41.12
70968;BME280;58629;48.808;8.820;2023-07-13T10:37:49;97292.66;;;22.67;42.71
70968;BME280;58629;48.808;8.820;2023-07-13T10:40:21;97300.63;;;22.51;42.34
70968;BME280;58629;48.808;8.820;2023-07-13T10:42:50;97302.03;;;22.77;42.05
70968;BME280;58629;48.808;8.820;2023-07-13T10:45:20;97299.50;;;23.16;42.92
70968;BME280;58629;48.808;8.820;2023-07-13T10:47:48;97294.72;;;23.37;42.20
70968;BME280;58629;48.808;8.820;2023-07-13T10:50:18;97303.56;;;22.84;40.83
70968;BME280;58629;48.808;8.820;2023-07-13T10:52:49;97299.88;;;23.35;41.26
70968;BME280;58629;48.808;8.820;2023-07-13T10:55:40;97301.13;;;23.45;38.42
70968;BME280;58629;48.808;8.820;2023-07-13T10:58:24;97305.41;;;23.09;37.66
70968;BME280;58629;48.808;8.820;2023-07-13T11:03:33;97288.88;;;23.60;38.41
70968;BME280;58629;48.808;8.820;2023-07-13T11:09:03;97281.47;;;22.85;38.64
70968;BME280;58629;48.808;8.820;2023-07-13T11:11:43;97282.44;;;22.46;39.67
70968;BME280;58629;48.808;8.820;2023-07-13T11:16:54;97279.78;;;22.51;39.75
70968;BME280;58629;48.808;8.820;2023-07-13T11:27:35;97280.34;;;24.06;38.67
70968;BME280;58629;48.808;8.820;2023-07-13T11:30:08;97283.66;;;23.40;37.22
70968;BME280;58629;48.808;8.820;2023-07-13T11:32:35;97279.66;;;23.30;38.30
70968;BME280;58629;48.808;8.820;2023-07-13T11:35:01;97279.41;;;23.17;38.11
70968;BME280;58629;48.808;8.820;2023-07-13T11:37:28;97268.81;;;23.13;38.92
70968;BME280;58629;48.808;8.820;2023-07-13T11:39:54;97276.09;;;23.61;36.96
70968;BME280;58629;48.808;8.820;2023-07-13T11:42:20;97271.22;;;23.92;37.67
70968;BME280;58629;48.808;8.820;2023-07-13T11:44:48;97279.81;;;24.02;37.78
70968;BME280;58629;48.808;8.820;2023-07-13T11:47:18;97275.91;;;24.25;37.38
70968;BME280;58629;48.808;8.820;2023-07-13T11:49:52;97273.94;;;23.92;37.57
70968;BME280;58629;48.808;8.820;2023-07-13T11:52:21;97273.41;;;23.77;37.19
70968;BME280;58629;48.808;8.820;2023-07-13T11:54:56;97275.91;;;24.03;36.51
70968;BME280;58629;48.808;8.820;2023-07-13T11:57:32;97281.75;;;24.62;36.77
70968;BME280;58629;48.808;8.820;2023-07-13T12:00:00;97278.06;;;24.54;35.18
70968;BME280;58629;48.808;8.820;2023-07-13T12:02:33;97280.03;;;24.81;33.84
70968;BME280;58629;48.808;8.820;2023-07-13T12:05:00;97277.94;;;25.15;34.22
70968;BME280;58629;48.808;8.820;2023-07-13T12:07:30;97282.28;;;24.39;34.55
70968;BME280;58629;48.808;8.820;2023-07-13T12:10:16;97284.75;;;24.42;35.01
70968;BME280;58629;48.808;8.820;2023-07-13T12:12:53;97265.25;;;24.71;34.67
70968;BME280;58629;48.808;8.820;2023-07-13T12:15:20;97274.13;;;24.66;34.97
70968;BME280;58629;48.808;8.820;2023-07-13T12:17:47;97268.22;;;24.57;34.79
70968;BME280;58629;48.808;8.820;2023-07-13T12:20:24;97278.09;;;24.60;34.25
70968;BME280;58629;48.808;8.820;2023-07-13T12:22:50;97280.19;;;25.06;34.55
70968;BME280;58629;48.808;8.820;2023-07-13T12:25:16;97289.66;;;25.34;34.43
70968;BME280;58629;48.808;8.820;2023-07-13T12:27:46;97280.66;;;25.67;34.41
70968;BME280;58629;48.808;8.820;2023-07-13T12:30:25;97271.38;;;25.46;33.33
70968;BME280;58629;48.808;8.820;2023-07-13T12:32:56;97272.88;;;25.82;32.59
70968;BME280;58629;48.808;8.820;2023-07-13T12:35:22;97263.97;;;25.87;33.83
70968;BME280;58629;48.808;8.820;2023-07-13T12:37:47;97273.22;;;25.67;33.36
70968;BME280;58629;48.808;8.820;2023-07-13T12:40:15;97273.13;;;25.38;32.34
70968;BME280;58629;48.808;8.820;2023-07-13T12:42:41;97266.63;;;25.63;33.15
70968;BME280;58629;48.808;8.820;2023-07-13T12:45:33;97274.47;;;25.15;32.46
70968;BME280;58629;48.808;8.820;2023-07-13T12:48:13;97274.06;;;24.94;33.65
70968;BME280;58629;48.808;8.820;2023-07-13T12:50:41;97280.25;;;24.89;33.78
70968;BME280;58629;48.808;8.820;2023-07-13T12:53:13;97278.56;;;24.53;34.01
70968;BME280;58629;48.808;8.820;2023-07-13T12:55:45;97279.22;;;24.92;34.34
70968;BME280;58629;48.808;8.820;2023-07-13T12:58:26;97277.47;;;25.63;35.25
70968;BME280;58629;48.808;8.820;2023-07-13T13:00:57;97274.53;;;25.61;34.03
70968;BME280;58629;48.808;8.820;2023-07-13T13:06:04;97269.13;;;25.91;33.90
70968;BME280;58629;48.808;8.820;2023-07-13T13:08:34;97275.22;;;25.67;34.16
70968;BME280;58629;48.808;8.820;2023-07-13T13:11:01;97270.72;;;25.75;33.41
70968;BME280;58629;48.808;8.820;2023-07-13T13:13:26;97266.16;;;24.96;33.45
70968;BME280;58629;48.808;8.820;2023-07-13T13:15:51;97278.16;;;25.17;33.17
70968;BME280;58629;48.808;8.820;2023-07-13T13:18:22;97276.84;;;25.35;32.65
70968;BME280;58629;48.808;8.820;2023-07-13T13:20:49;97268.72;;;25.40;33.34
70968;BME280;58629;48.808;8.820;2023-07-13T13:23:17;97269.03;;;25.20;33.57
70968;BME280;58629;48.808;8.820;2023-07-13T13:25:44;97264.03;;;25.41;32.43
70968;BME280;58629;48.808;8.820;2023-07-13T13:28:19;97269.69;;;25.43;32.50
70968;BME280;58629;48.808;8.820;2023-07-13T13:30:46;97261.34;;;25.30;32.36
70968;BME280;58629;48.808;8.820;2023-07-13T13:33:15;97268.31;;;25.14;32.62
70968;BME280;58629;48.808;8.820;2023-07-13T13:35:41;97275.31;;;25.86;32.68